Aviation Digital Data Service (ADDS)

Output produced by METARs form (0801 UTC 18 April 2014)
found at http://aviationweather.gov/adds/metars/
 
KLYH 180727Z 1807/1906 05005KT P6SM SCT015 BKN250 
     TEMPO 1807/1811 BKN015 
     FM181400 05007KT P6SM OVC250 
     FM190000 04008KT P6SM BKN100 OVC200